Time;durP1;ratioP1;P1;durP2;ratioP2;P2;SDS_P1;SDS_P2;PMS_P1;PMS_P2;Temp;Humidity;BMP_temperature;BMP_pressure;BME280_temperature;BME280_humidity;BME280_pressure;Samples;Min_cycle;Max_cycle;Signal;HPM_P1;HPM_P2
2023/07/21 00:01:48;;;;;;;7.05;1.10;;;;;;;15.98;100.00;98276.84;5030731;28;20439;-75
2023/07/21 00:04:13;;;;;;;2.35;0.90;;;;;;;15.97;100.00;98291.56;5028616;28;20068;-74
2023/07/21 00:06:39;;;;;;;1.88;1.08;;;;;;;15.90;100.00;98282.72;5033033;28;20117;-75
2023/07/21 00:09:06;;;;;;;7.85;0.80;;;;;;;15.77;100.00;98275.72;5040180;28;20025;-75
2023/07/21 00:11:31;;;;;;;1.90;1.10;;;;;;;15.83;100.00;98284.81;5032444;28;20029;-75
2023/07/21 00:13:57;;;;;;;4.32;1.02;;;;;;;15.78;100.00;98288.28;5035728;28;20501;-75
2023/07/21 00:16:22;;;;;;;4.00;0.95;;;;;;;15.75;100.00;98286.88;5032095;28;20029;-74
2023/07/21 00:18:48;;;;;;;4.47;0.95;;;;;;;15.73;100.00;98277.31;5033560;28;20108;-75
2023/07/21 00:21:14;;;;;;;2.30;1.27;;;;;;;15.73;100.00;98283.56;5032577;28;20025;-75
2023/07/21 00:23:39;;;;;;;3.33;1.45;;;;;;;15.59;100.00;98279.53;5033266;28;20037;-74
2023/07/21 00:26:06;;;;;;;4.88;1.50;;;;;;;15.62;100.00;98276.28;5034931;28;20020;-75
2023/07/21 00:28:31;;;;;;;8.65;1.20;;;;;;;15.62;100.00;98276.28;5036366;28;20075;-75
2023/07/21 00:30:56;;;;;;;1.27;1.00;;;;;;;15.50;100.00;98270.91;5061861;22;20041;-76
2023/07/21 00:33:22;;;;;;;2.50;1.40;;;;;;;15.41;100.00;98266.97;5010014;28;20109;-78
2023/07/21 00:35:48;;;;;;;2.38;1.02;;;;;;;15.49;100.00;98285.63;5028632;28;20022;-76
2023/07/21 00:38:13;;;;;;;2.85;1.50;;;;;;;15.47;100.00;98274.13;5013104;28;20107;-76
2023/07/21 00:40:39;;;;;;;2.63;1.13;;;;;;;15.53;100.00;98270.41;5028699;28;20068;-75
2023/07/21 00:43:06;;;;;;;2.33;1.15;;;;;;;15.61;100.00;98280.06;5012016;28;20021;-76
2023/07/21 00:45:37;;;;;;;3.00;1.20;;;;;;;15.49;100.00;98265.72;5011576;28;20030;-76
2023/07/21 00:48:05;;;;;;;3.88;1.33;;;;;;;15.41;100.00;98272.41;5011796;28;20475;-76
2023/07/21 00:50:30;;;;;;;2.25;1.20;;;;;;;15.35;100.00;98270.66;5010026;28;20030;-77
2023/07/21 00:52:58;;;;;;;2.95;1.10;;;;;;;15.32;100.00;98287.50;5002645;28;20033;-75
2023/07/21 00:55:24;;;;;;;2.45;1.10;;;;;;;15.24;100.00;98285.19;5011243;28;20451;-76
2023/07/21 00:57:49;;;;;;;2.08;1.30;;;;;;;15.10;100.00;98274.63;5011650;28;20030;-76
2023/07/21 01:00:15;;;;;;;3.97;1.33;;;;;;;15.00;100.00;98243.66;5012748;28;20479;-76
2023/07/21 01:02:40;;;;;;;4.10;1.38;;;;;;;15.10;100.00;98269.16;5007947;28;20400;-76
2023/07/21 01:05:08;;;;;;;5.93;1.33;;;;;;;15.13;100.00;98276.03;5011396;28;20104;-76
2023/07/21 01:07:35;;;;;;;3.58;1.15;;;;;;;15.12;100.00;98261.56;5011902;28;20037;-76
2023/07/21 01:10:01;;;;;;;2.88;1.30;;;;;;;15.22;100.00;98273.72;5012886;28;20065;-76
2023/07/21 01:12:27;;;;;;;2.45;1.10;;;;;;;15.16;100.00;98269.25;5009901;28;20025;-76
2023/07/21 01:14:53;;;;;;;3.33;1.45;;;;;;;15.03;100.00;98260.31;5010525;28;20056;-76
2023/07/21 01:17:19;;;;;;;2.47;1.30;;;;;;;15.00;100.00;98260.81;5010570;28;20026;-76
2023/07/21 01:19:48;;;;;;;3.13;1.05;;;;;;;15.01;100.00;98272.53;5009619;28;20172;-76
2023/07/21 01:22:40;;;;;;;3.38;1.40;;;;;;;15.05;100.00;98268.25;5008205;28;20030;-76
2023/07/21 01:25:11;;;;;;;3.65;1.10;;;;;;;15.07;100.00;98269.66;5009647;28;20060;-76
2023/07/21 01:27:39;;;;;;;2.05;1.30;;;;;;;15.08;100.00;98254.94;5009197;28;20026;-76
2023/07/21 01:30:10;;;;;;;5.70;1.20;;;;;;;15.10;100.00;98254.72;5010617;28;20018;-76
2023/07/21 01:32:37;;;;;;;1.90;1.23;;;;;;;15.15;100.00;98254.81;5011599;28;20129;-76
2023/07/21 01:35:07;;;;;;;2.00;1.20;;;;;;;15.16;100.00;98240.09;5007038;28;20258;-76
2023/07/21 01:37:33;;;;;;;2.20;1.38;;;;;;;15.16;100.00;98244.72;5010853;28;20045;-77
2023/07/21 01:39:59;;;;;;;2.35;1.30;;;;;;;15.20;100.00;98243.19;5009758;28;20070;-78
2023/07/21 01:42:29;;;;;;;2.13;1.40;;;;;;;15.03;100.00;98215.91;5007030;28;20065;-76
2023/07/21 01:44:56;;;;;;;2.65;1.55;;;;;;;15.11;100.00;98243.56;5010880;28;20022;-76
2023/07/21 01:47:21;;;;;;;4.38;1.60;;;;;;;15.07;100.00;98231.53;5010175;28;20033;-76
2023/07/21 01:49:47;;;;;;;3.75;1.30;;;;;;;15.03;100.00;98227.63;5011198;28;20541;-76
2023/07/21 01:52:16;;;;;;;4.25;1.33;;;;;;;14.97;100.00;98223.16;5008473;28;20113;-76
2023/07/21 01:54:56;;;;;;;2.17;1.20;;;;;;;15.16;100.00;98244.72;5008032;28;20030;-76
2023/07/21 01:57:28;;;;;;;1.90;1.20;;;;;;;15.06;100.00;98232.59;5007282;28;20125;-76
2023/07/21 01:59:54;;;;;;;3.15;1.20;;;;;;;15.04;100.00;98229.28;5009908;28;20065;-76
2023/07/21 02:02:20;;;;;;;2.45;1.35;;;;;;;14.81;100.00;98202.19;5011588;28;20084;-76
2023/07/21 02:04:53;;;;;;;4.80;1.67;;;;;;;14.90;100.00;98225.22;5006499;28;20029;-76
2023/07/21 02:07:20;;;;;;;7.18;1.60;;;;;;;14.85;100.00;98236.00;5012146;28;20033;-76
2023/07/21 02:09:48;;;;;;;3.85;1.45;;;;;;;14.85;100.00;98242.28;5009613;28;20380;-77
2023/07/21 02:12:13;;;;;;;8.15;1.40;;;;;;;14.65;100.00;98226.41;5007655;28;20026;-77
2023/07/21 02:14:39;;;;;;;2.97;1.52;;;;;;;14.81;100.00;98248.50;5010459;28;20022;-75
2023/07/21 02:17:04;;;;;;;2.55;1.25;;;;;;;14.69;100.00;98224.84;5009990;28;20021;-76
2023/07/21 02:19:30;;;;;;;2.80;1.30;;;;;;;14.59;100.00;98216.50;4995389;28;20423;-77
2023/07/21 02:21:56;;;;;;;1.65;1.30;;;;;;;14.52;100.00;98223.97;5007923;28;20021;-76
2023/07/21 02:24:21;;;;;;;3.45;1.52;;;;;;;14.47;100.00;98221.13;5012025;28;20468;-76
2023/07/21 02:26:47;;;;;;;4.00;1.60;;;;;;;14.29;100.00;98202.28;5009775;28;20160;-76
2023/07/21 02:29:12;;;;;;;8.00;1.77;;;;;;;14.44;100.00;98235.25;5011646;28;20026;-76
2023/07/21 02:31:38;;;;;;;2.10;1.20;;;;;;;14.44;100.00;98230.63;5008775;28;20391;-76
2023/07/21 02:34:04;;;;;;;2.97;1.30;;;;;;;14.35;100.00;98220.34;5008681;28;20363;-76
2023/07/21 02:36:29;;;;;;;5.35;1.58;;;;;;;14.30;100.00;98223.78;5007936;28;20022;-77
2023/07/21 02:38:56;;;;;;;3.17;1.45;;;;;;;14.19;100.00;98211.88;5005065;28;20480;-76
2023/07/21 02:41:21;;;;;;;2.53;1.38;;;;;;;14.28;100.00;98225.09;5008967;28;20486;-76
2023/07/21 02:43:46;;;;;;;3.13;1.33;;;;;;;14.27;100.00;98213.38;5008256;28;20026;-79
2023/07/21 02:46:13;;;;;;;2.83;1.20;;;;;;;14.30;100.00;98214.81;5008758;28;20340;-76
2023/07/21 02:48:38;;;;;;;2.30;1.40;;;;;;;14.28;100.00;98214.22;4999481;28;20137;-76
2023/07/21 02:51:03;;;;;;;2.65;1.35;;;;;;;14.27;100.00;98212.56;4990313;28;20510;-76
2023/07/21 02:53:30;;;;;;;3.08;1.60;;;;;;;14.38;100.00;98228.03;5008663;28;21530;-75
2023/07/21 02:55:56;;;;;;;3.85;1.48;;;;;;;14.22;100.00;98200.50;5003109;28;20032;-76
2023/07/21 02:58:26;;;;;;;4.30;1.88;;;;;;;14.25;100.00;98210.06;5008472;28;20033;-76
2023/07/21 03:00:51;;;;;;;2.47;1.40;;;;;;;13.95;100.00;98172.22;5010455;28;20032;-77
2023/07/21 03:03:16;;;;;;;3.20;1.33;;;;;;;14.17;100.00;98222.19;5012158;28;20108;-75
2023/07/21 03:05:42;;;;;;;2.42;1.42;;;;;;;14.20;100.00;98213.53;5011018;28;20022;-76
2023/07/21 03:08:08;;;;;;;3.28;1.48;;;;;;;14.34;100.00;98221.44;5011809;28;20091;-76
2023/07/21 03:10:33;;;;;;;3.00;1.77;;;;;;;14.46;100.00;98219.47;5010338;28;20510;-76
2023/07/21 03:12:59;;;;;;;5.32;1.65;;;;;;;14.59;100.00;98213.78;5011294;28;20022;-76
2023/07/21 03:15:24;;;;;;;3.03;1.75;;;;;;;14.52;100.00;98214.97;5014230;28;20029;-76
2023/07/21 03:17:49;;;;;;;2.80;1.60;;;;;;;14.62;100.00;98207.03;5013434;28;20022;-77
2023/07/21 03:20:15;;;;;;;3.80;1.60;;;;;;;14.55;100.00;98222.69;5013393;28;20048;-77
2023/07/21 03:22:44;;;;;;;2.20;1.17;;;;;;;14.48;100.00;98225.50;5012848;28;20032;-76
2023/07/21 03:25:11;;;;;;;4.50;1.40;;;;;;;14.35;100.00;98223.06;5011559;28;20484;-76
2023/07/21 03:27:38;;;;;;;2.47;1.40;;;;;;;14.22;100.00;98216.00;5013708;28;20479;-76
2023/07/21 03:30:04;;;;;;;3.30;1.40;;;;;;;14.16;100.00;98220.53;5014008;28;20018;-78
2023/07/21 03:32:29;;;;;;;3.17;1.35;;;;;;;13.96;100.00;98190.19;5011666;28;20402;-75
2023/07/21 03:34:55;;;;;;;3.30;1.73;;;;;;;13.98;100.00;98202.47;5013044;28;20121;-76
2023/07/21 03:37:25;;;;;;;5.35;1.88;;;;;;;14.15;100.00;98232.47;5009868;28;20044;-75
2023/07/21 03:39:50;;;;;;;4.13;1.58;;;;;;;14.10;100.00;98215.22;5011373;28;20033;-75
2023/07/21 03:42:16;;;;;;;6.60;1.55;;;;;;;14.10;100.00;98199.72;5011010;28;20141;-77
2023/07/21 03:44:41;;;;;;;5.95;1.73;;;;;;;14.12;100.00;98202.19;5008562;28;20054;-76
2023/07/21 03:47:06;;;;;;;4.05;1.90;;;;;;;14.16;100.00;98217.81;5006779;28;20054;-76
2023/07/21 03:49:32;;;;;;;3.50;1.48;;;;;;;14.18;100.00;98221.13;5008660;28;20076;-75
2023/07/21 03:51:57;;;;;;;3.38;1.20;;;;;;;14.14;100.00;98197.34;5013851;28;20066;-76
2023/07/21 03:54:22;;;;;;;5.72;1.85;;;;;;;14.21;100.00;98211.66;5011566;28;20160;-79
2023/07/21 03:56:48;;;;;;;5.18;1.67;;;;;;;14.18;100.00;98207.50;5012938;28;20025;-76
2023/07/21 03:59:13;;;;;;;2.88;1.58;;;;;;;14.18;100.00;98212.13;5017063;28;20080;-74
2023/07/21 04:01:38;;;;;;;5.18;1.35;;;;;;;14.16;100.00;98220.53;5008992;28;20127;-67
2023/07/21 04:04:04;;;;;;;4.28;1.48;;;;;;;14.18;100.00;98223.84;5012900;28;20033;-67
2023/07/21 04:06:29;;;;;;;6.03;1.30;;;;;;;14.09;100.00;98217.09;5011376;28;20108;-67
2023/07/21 04:08:54;;;;;;;4.50;1.40;;;;;;;14.08;100.00;98215.47;5013065;28;20017;-68
2023/07/21 04:11:20;;;;;;;4.55;1.40;;;;;;;13.99;100.00;98195.13;5007501;28;20022;-67
2023/07/21 04:13:45;;;;;;;3.95;1.40;;;;;;;14.14;100.00;98209.06;5013911;28;20030;-66
2023/07/21 04:16:11;;;;;;;2.28;1.55;;;;;;;14.23;100.00;98202.19;5011310;28;20028;-68
2023/07/21 04:18:38;;;;;;;4.22;1.98;;;;;;;14.31;100.00;98195.53;5012251;28;20079;-68
2023/07/21 04:21:04;;;;;;;3.92;1.42;;;;;;;14.51;100.00;98202.41;5009777;28;20022;-72
2023/07/21 04:23:29;;;;;;;2.65;1.48;;;;;;;14.66;100.00;98206.28;5011617;28;20060;-82
2023/07/21 04:25:54;;;;;;;2.25;1.35;;;;;;;14.73;100.00;98203.41;5015341;28;20022;-81
2023/07/21 04:28:20;;;;;;;2.75;1.55;;;;;;;14.82;100.00;98210.09;5013545;28;20151;-82
2023/07/21 04:30:47;;;;;;;2.90;1.70;;;;;;;14.93;100.00;98205.66;5011807;28;20176;-76
2023/07/21 04:33:13;;;;;;;3.97;2.17;;;;;;;14.99;100.00;98188.34;5012398;28;20226;-76
2023/07/21 04:35:48;;;;;;;5.18;1.73;;;;;;;15.12;100.00;98182.56;5012680;28;20041;-75
2023/07/21 04:38:14;;;;;;;2.92;1.45;;;;;;;15.18;100.00;98191.63;5011379;28;20099;-76
2023/07/21 04:40:46;;;;;;;4.28;1.50;;;;;;;15.31;100.00;98212.28;5011937;28;20045;-80
2023/07/21 04:43:12;;;;;;;2.08;1.10;;;;;;;15.22;100.00;98186.50;5014072;28;20156;-75
2023/07/21 04:45:43;;;;;;;4.20;1.42;;;;;;;15.34;100.00;98198.16;5012911;28;20505;-76
2023/07/21 04:48:09;;;;;;;3.25;1.42;;;;;;;15.46;100.00;98212.53;5016905;28;20018;-82
2023/07/21 04:50:35;;;;;;;5.72;1.85;;;;;;;15.47;100.00;98210.63;5013920;28;20026;-82
2023/07/21 04:53:01;;;;;;;3.83;1.60;;;;;;;15.38;100.00;98182.13;5015697;28;20021;-84
2023/07/21 04:55:27;;;;;;;3.38;1.60;;;;;;;15.44;100.00;98203.75;5013863;28;20108;-81
2023/07/21 04:57:53;;;;;;;2.20;1.45;;;;;;;15.59;100.00;98218.69;5013736;28;20036;-75
2023/07/21 05:00:18;;;;;;;3.70;1.98;;;;;;;15.48;100.00;98210.38;5010514;28;20079;-75
2023/07/21 05:02:44;;;;;;;4.70;1.90;;;;;;;15.65;100.00;98226.69;5021994;28;20120;-77
2023/07/21 05:05:09;;;;;;;2.58;1.45;;;;;;;15.57;100.00;98213.50;5031271;28;20026;-80
2023/07/21 05:07:35;;;;;;;2.63;1.40;;;;;;;15.54;100.00;98205.81;5021385;28;20034;-81
2023/07/21 05:10:00;;;;;;;4.47;1.70;;;;;;;15.57;100.00;98216.22;5023739;28;20113;-81
2023/07/21 05:12:26;;;;;;;3.38;1.60;;;;;;;15.69;100.00;98221.59;5018344;28;20030;-80
2023/07/21 05:14:51;;;;;;;5.25;1.65;;;;;;;15.70;100.00;98204.19;5017222;28;20037;-76
2023/07/21 05:17:17;;;;;;;2.80;1.60;;;;;;;15.67;100.00;98185.56;5011720;28;20022;-79
2023/07/21 05:19:44;;;;;;;3.70;1.33;;;;;;;15.75;100.00;98198.78;5011410;28;20823;-78
2023/07/21 05:22:09;;;;;;;4.65;1.48;;;;;;;15.85;100.00;98212.56;5011061;28;20105;-79
2023/07/21 05:24:34;;;;;;;5.65;1.50;;;;;;;15.71;100.00;98211.25;5002822;28;20109;-80
2023/07/21 05:27:00;;;;;;;7.15;1.58;;;;;;;15.81;100.00;98197.78;5010968;28;20499;-74
2023/07/21 05:29:25;;;;;;;3.92;1.40;;;;;;;15.92;100.00;98218.66;5011359;28;20391;-74
2023/07/21 05:31:52;;;;;;;2.85;1.65;;;;;;;15.98;100.00;98217.66;5003428;28;20056;-74
2023/07/21 05:34:17;;;;;;;2.47;1.27;;;;;;;16.05;100.00;98224.81;5006471;28;20072;-74
2023/07/21 05:36:42;;;;;;;5.22;1.85;;;;;;;16.08;100.00;98218.84;5007416;28;20018;-74
2023/07/21 05:39:08;;;;;;;10.30;1.67;;;;;;;15.99;100.00;98210.28;5011800;28;20083;-74
2023/07/21 05:41:33;;;;;;;5.45;1.42;;;;;;;16.16;100.00;98216.50;5013647;28;20026;-74
2023/07/21 05:43:58;;;;;;;4.10;1.60;;;;;;;16.12;100.00;98200.91;5005370;28;20030;-74
2023/07/21 05:46:24;;;;;;;7.25;1.80;;;;;;;16.16;100.00;98186.47;5012912;28;20029;-77
2023/07/21 05:48:50;;;;;;;3.97;1.45;;;;;;;16.41;100.00;98196.88;5015550;28;20025;-79
2023/07/21 05:51:17;;;;;;;6.20;1.90;;;;;;;16.63;100.00;98209.66;5008557;28;20419;-77
2023/07/21 05:53:43;;;;;;;5.40;1.60;;;;;;;16.76;100.00;98201.06;5015746;28;20033;-70
2023/07/21 05:56:08;;;;;;;5.38;1.75;;;;;;;16.77;100.00;98196.44;5011127;28;20029;-75
2023/07/21 05:58:35;;;;;;;4.72;1.95;;;;;;;16.89;100.00;98216.25;5008088;28;20120;-77
2023/07/21 06:01:01;;;;;;;6.55;2.00;;;;;;;16.93;100.00;98200.16;5009611;28;20069;-76
2023/07/21 06:03:26;;;;;;;10.25;2.00;;;;;;;16.96;100.00;98195.00;5009160;28;20120;-77
2023/07/21 06:05:52;;;;;;;8.73;1.77;;;;;;;17.30;100.00;98201.03;5010366;28;20514;-70
2023/07/21 06:08:18;;;;;;;3.72;1.60;;;;;;;17.70;100.00;98199.63;5008226;28;20578;-72
2023/07/21 06:10:44;;;;;;;3.97;1.40;;;;;;;18.02;100.00;98206.97;5011176;28;20144;-71
2023/07/21 06:13:10;;;;;;;5.97;1.65;;;;;;;18.49;100.00;98216.19;5009947;28;20025;-71
2023/07/21 06:15:36;;;;;;;2.55;1.35;;;;;;;18.72;100.00;98207.47;5011408;28;20033;-71
2023/07/21 06:18:03;;;;;;;4.50;1.98;;;;;;;18.81;100.00;98188.59;5010023;28;20021;-70
2023/07/21 06:20:28;;;;;;;4.47;1.45;;;;;;;19.03;100.00;98197.41;5009999;28;20037;-70
2023/07/21 06:22:54;;;;;;;2.08;1.45;;;;;;;19.20;100.00;98190.81;5010812;28;20030;-83
2023/07/21 06:25:19;;;;;;;7.95;1.55;;;;;;;19.38;100.00;98201.25;5026394;28;20029;-72
2023/07/21 06:27:47;;;;;;;4.78;1.75;;;;;;;19.93;100.00;98201.44;5010417;28;20395;-71
2023/07/21 06:30:13;;;;;;;3.58;1.35;;;;;;;20.24;100.00;98206.84;5006722;28;20107;-74
2023/07/21 06:32:40;;;;;;;5.07;1.50;;;;;;;20.48;100.00;98207.81;5006519;28;20057;-80
2023/07/21 06:35:07;;;;;;;2.55;1.33;;;;;;;20.43;100.00;98204.28;5009152;28;20065;-74
2023/07/21 06:37:33;;;;;;;7.15;1.38;;;;;;;20.72;100.00;98212.66;5006581;28;20373;-74
2023/07/21 06:39:59;;;;;;;4.97;1.30;;;;;;;21.30;100.00;98221.09;5007932;28;20033;-73
2023/07/21 06:42:24;;;;;;;2.35;1.20;;;;;;;21.40;100.00;98209.19;5008202;28;20475;-74
2023/07/21 06:44:49;;;;;;;2.40;1.13;;;;;;;21.60;100.00;98202.69;5011443;28;20138;-74
2023/07/21 06:47:16;;;;;;;2.17;1.10;;;;;;;21.85;100.00;98201.56;5009263;28;20132;-74
2023/07/21 06:49:41;;;;;;;2.67;1.50;;;;;;;22.31;100.00;98206.59;5009292;28;20429;-74
2023/07/21 06:52:08;;;;;;;2.53;1.20;;;;;;;22.16;96.83;98213.06;5011366;28;20026;-72
2023/07/21 06:54:35;;;;;;;4.18;1.40;;;;;;;22.74;93.82;98218.44;5011545;28;20028;-73
2023/07/21 06:57:01;;;;;;;3.90;1.33;;;;;;;24.58;81.25;98200.59;5004199;28;20127;-76
2023/07/21 06:59:26;;;;;;;8.75;1.85;;;;;;;26.52;72.63;98196.84;5013587;28;20057;-74
2023/07/21 07:01:52;;;;;;;3.50;1.33;;;;;;;26.67;66.93;98186.09;5017378;28;20025;-85
2023/07/21 07:04:17;;;;;;;3.47;1.40;;;;;;;27.72;62.48;98200.75;5046947;28;20029;-74
2023/07/21 07:06:43;;;;;;;3.78;1.40;;;;;;;28.93;59.82;98181.03;5028320;28;20029;-84
2023/07/21 07:09:08;;;;;;;2.63;1.33;;;;;;;30.33;55.19;98184.81;5008038;28;20030;-75
2023/07/21 07:11:34;;;;;;;2.45;1.23;;;;;;;30.70;54.09;98198.75;5011240;28;20109;-79
2023/07/21 07:14:00;;;;;;;2.53;1.23;;;;;;;31.11;49.95;98194.03;5009037;28;20499;-76
2023/07/21 07:16:25;;;;;;;4.10;1.20;;;;;;;29.96;51.52;98199.91;5004946;28;20030;-75
2023/07/21 07:18:51;;;;;;;2.33;1.40;;;;;;;27.97;54.91;98206.56;5008993;28;20017;-77
2023/07/21 07:21:16;;;;;;;4.28;1.30;;;;;;;27.69;57.44;98206.97;5007522;28;20085;-77
2023/07/21 07:23:42;;;;;;;2.85;1.13;;;;;;;27.80;58.47;98204.66;4998565;28;20033;-81
2023/07/21 07:26:07;;;;;;;2.95;1.30;;;;;;;27.83;58.41;98192.88;5008203;28;20025;-73
2023/07/21 07:28:32;;;;;;;3.08;1.30;;;;;;;28.13;58.75;98213.22;5003613;28;20030;-72
2023/07/21 07:31:04;;;;;;;3.30;1.40;;;;;;;26.83;59.79;98208.63;5007645;28;20578;-72
2023/07/21 07:33:29;;;;;;;3.97;1.30;;;;;;;26.84;61.66;98210.25;5009274;28;20032;-72
2023/07/21 07:35:54;;;;;;;6.32;1.38;;;;;;;26.64;61.34;98216.41;5008972;28;20050;-72
2023/07/21 07:38:24;;;;;;;3.25;1.35;;;;;;;26.20;63.24;98210.75;5009559;28;20040;-72
2023/07/21 07:40:50;;;;;;;1.73;1.20;;;;;;;25.92;65.35;98212.91;4995960;28;20017;-72
2023/07/21 07:43:16;;;;;;;7.80;1.40;;;;;;;24.97;66.43;98199.19;5008999;28;20100;-72
2023/07/21 07:45:41;;;;;;;2.10;1.20;;;;;;;24.87;69.01;98204.94;5007750;28;20018;-72
2023/07/21 07:48:09;;;;;;;3.47;1.33;;;;;;;24.75;70.71;98208.25;5005587;28;20038;-72
2023/07/21 07:50:41;;;;;;;2.20;1.17;;;;;;;24.61;72.06;98202.75;5008397;28;20506;-72
2023/07/21 07:53:08;;;;;;;4.75;1.55;;;;;;;24.53;73.16;98197.13;5010571;28;20519;-72
2023/07/21 07:55:37;;;;;;;4.00;1.42;;;;;;;24.81;72.73;98214.47;5009625;28;20052;-72
2023/07/21 07:58:03;;;;;;;2.53;1.20;;;;;;;24.59;72.42;98204.19;5006339;28;20068;-73
2023/07/21 08:00:29;;;;;;;1.90;1.30;;;;;;;24.65;71.23;98222.28;5005600;28;20043;-72
2023/07/21 08:02:55;;;;;;;2.67;1.20;;;;;;;24.20;72.82;98216.56;5012107;28;20658;-72
2023/07/21 08:05:21;;;;;;;7.25;1.30;;;;;;;23.99;73.15;98222.50;5013518;28;20030;-72
2023/07/21 08:07:48;;;;;;;7.30;1.80;;;;;;;24.10;74.40;98220.34;5020982;28;20152;-72
2023/07/21 08:10:13;;;;;;;3.28;1.45;;;;;;;24.24;73.95;98232.25;5011873;28;20116;-72
2023/07/21 08:12:39;;;;;;;4.15;1.50;;;;;;;24.49;73.65;98238.41;5009985;28;20117;-72
2023/07/21 08:15:04;;;;;;;2.95;1.50;;;;;;;24.36;71.38;98233.66;5010603;28;20046;-72
2023/07/21 08:17:30;;;;;;;5.97;1.90;;;;;;;24.14;73.27;98242.69;5013891;28;20092;-72
2023/07/21 08:19:55;;;;;;;4.30;1.70;;;;;;;24.14;73.81;98221.38;5013829;28;20029;-72
2023/07/21 08:22:20;;;;;;;1.88;1.30;;;;;;;24.00;74.24;98223.34;5013288;28;20467;-72
2023/07/21 08:24:45;;;;;;;2.45;1.48;;;;;;;24.46;73.71;98225.19;5011255;28;20399;-72
2023/07/21 08:27:11;;;;;;;3.10;1.30;;;;;;;24.99;70.69;98221.81;5013079;28;20028;-72
2023/07/21 08:29:36;;;;;;;2.30;1.30;;;;;;;25.64;65.05;98226.06;5012379;28;20075;-72
2023/07/21 08:32:01;;;;;;;4.53;1.40;;;;;;;27.73;61.48;98219.03;5013407;28;20064;-72
2023/07/21 08:34:27;;;;;;;4.72;1.60;;;;;;;29.16;55.37;98217.69;5011367;28;20038;-72
2023/07/21 08:36:52;;;;;;;3.95;1.10;;;;;;;29.22;51.12;98230.28;5013296;28;20172;-72
2023/07/21 08:39:18;;;;;;;6.03;1.42;;;;;;;30.41;51.00;98221.34;5012623;28;20033;-72
2023/07/21 08:41:49;;;;;;;5.85;1.50;;;;;;;31.28;50.02;98214.47;5010922;28;20041;-72
2023/07/21 08:44:16;;;;;;;5.90;1.20;;;;;;;32.59;46.98;98224.78;5010905;28;20056;-72
2023/07/21 08:46:41;;;;;;;1.90;1.10;;;;;;;32.40;43.68;98225.50;5007618;28;20018;-73
2023/07/21 08:49:07;;;;;;;1.27;0.70;;;;;;;30.88;45.75;98223.66;5011402;28;20048;-73
2023/07/21 08:51:33;;;;;;;2.08;0.77;;;;;;;30.71;46.50;98233.91;5012123;28;20550;-72
2023/07/21 08:53:58;;;;;;;2.85;1.00;;;;;;;29.89;48.33;98231.97;5012572;28;20105;-72
2023/07/21 08:56:24;;;;;;;5.40;1.40;;;;;;;29.46;49.55;98243.50;5010791;28;20507;-72
2023/07/21 08:58:49;;;;;;;1.40;1.00;;;;;;;28.26;49.83;98228.03;5004249;28;20144;-72
2023/07/21 09:01:14;;;;;;;2.90;1.10;;;;;;;28.00;50.45;98244.84;5010847;28;20029;-73
2023/07/21 09:03:46;;;;;;;3.60;0.98;;;;;;;27.91;51.96;98247.66;5012956;28;20040;-72
2023/07/21 09:06:13;;;;;;;1.85;1.00;;;;;;;27.85;51.32;98248.13;5012998;28;20033;-72
2023/07/21 09:08:38;;;;;;;2.83;1.25;;;;;;;27.43;51.76;98236.75;5011784;28;21742;-72
2023/07/21 09:11:04;;;;;;;2.35;1.05;;;;;;;27.23;53.14;98230.72;5011645;28;20048;-72
2023/07/21 09:13:32;;;;;;;2.83;1.00;;;;;;;27.71;52.50;98243.56;5009408;28;20049;-72
2023/07/21 09:16:07;;;;;;;4.57;0.98;;;;;;;27.61;52.33;98248.66;5006363;28;20115;-73
2023/07/21 09:18:41;;;;;;;2.58;0.93;;;;;;;27.71;50.21;98249.13;5011163;28;20029;-72
2023/07/21 09:21:07;;;;;;;2.70;0.80;;;;;;;28.02;50.59;98239.75;5009901;28;20026;-72
2023/07/21 09:23:33;;;;;;;5.03;1.00;;;;;;;28.42;51.20;98239.44;5011534;28;20041;-72
2023/07/21 09:25:59;;;;;;;1.42;0.98;;;;;;;29.34;49.65;98241.47;5009891;28;20048;-72
2023/07/21 09:28:38;;;;;;;1.63;0.90;;;;;;;29.84;49.09;98243.34;5011064;28;20113;-72
2023/07/21 09:31:04;;;;;;;2.92;1.10;;;;;;;29.54;48.79;98227.88;5010158;28;20033;-72
2023/07/21 09:33:29;;;;;;;2.72;1.15;;;;;;;30.06;48.46;98241.28;5010642;28;20404;-72
2023/07/21 09:36:09;;;;;;;1.73;1.23;;;;;;;30.96;46.69;98240.28;5010989;28;20021;-72
2023/07/21 09:38:36;;;;;;;4.72;1.10;;;;;;;33.78;42.66;98233.81;5008943;28;20139;-72
2023/07/21 09:41:10;;;;;;;1.95;0.73;;;;;;;33.19;40.84;98244.19;5011183;28;20028;-72
2023/07/21 09:43:37;;;;;;;2.05;1.23;;;;;;;36.71;38.04;98242.66;5012361;28;20088;-72
2023/07/21 09:46:05;;;;;;;3.05;0.82;;;;;;;37.85;34.65;98236.00;5010924;28;20392;-73
2023/07/21 09:48:31;;;;;;;3.47;0.98;;;;;;;39.63;32.60;98225.75;5008311;28;20026;-72
2023/07/21 09:51:03;;;;;;;4.53;1.02;;;;;;;42.12;30.03;98225.78;5005040;28;20105;-73
2023/07/21 09:53:39;;;;;;;1.17;0.82;;;;;;;42.55;28.15;98236.47;5007095;28;20053;-75
2023/07/21 09:56:07;;;;;;;1.05;0.77;;;;;;;43.46;27.89;98226.63;5005171;28;20022;-73
2023/07/21 09:58:42;;;;;;;1.73;0.90;;;;;;;43.38;26.47;98221.53;5009195;28;20036;-73
2023/07/21 10:01:09;;;;;;;2.00;0.80;;;;;;;43.99;26.24;98221.03;5009452;28;20415;-73
2023/07/21 10:03:35;;;;;;;;;;;;;;;44.55;25.55;98222.97;5009069;28;20459;-73
2023/07/21 10:06:01;;;;;;;1.52;1.00;;;;;;;43.02;25.44;98213.69;5006114;28;20012;-75
2023/07/21 10:08:27;;;;;;;3.25;0.90;;;;;;;40.82;27.67;98203.03;5010110;28;20522;-72
2023/07/21 10:10:57;;;;;;;1.98;1.15;;;;;;;42.22;26.49;98202.06;5007363;28;20037;-72
2023/07/21 10:13:26;;;;;;;2.13;0.88;;;;;;;43.07;26.10;98202.59;5005698;28;20087;-75
2023/07/21 10:15:51;;;;;;;2.08;0.60;;;;;;;41.92;24.59;98203.78;5005169;28;20112;-72
2023/07/21 10:18:18;;;;;;;1.17;0.75;;;;;;;43.10;26.16;98198.91;5007019;28;20108;-72
2023/07/21 10:20:44;;;;;;;2.27;0.97;;;;;;;43.35;26.29;98194.75;5008280;28;20034;-73
2023/07/21 10:23:12;;;;;;;2.97;0.90;;;;;;;43.35;25.07;98193.94;5009519;28;20071;-72
2023/07/21 10:26:05;;;;;;;4.75;0.90;;;;;;;43.30;25.69;98193.22;5010664;28;20132;-73
2023/07/21 10:28:30;;;;;;;0.85;0.80;;;;;;;42.54;26.09;98192.22;5006896;28;20060;-73
2023/07/21 10:31:24;;;;;;;1.53;0.93;;;;;;;41.57;27.15;98183.13;5009110;28;20403;-73
2023/07/21 10:34:12;;;;;;;1.38;0.70;;;;;;;42.99;26.16;98180.41;5010090;28;20403;-73
2023/07/21 10:36:49;;;;;;;2.72;0.85;;;;;;;43.81;25.27;98172.19;5011383;28;20022;-72
2023/07/21 10:39:24;;;;;;;1.85;0.80;;;;;;;43.01;25.46;98166.56;5005910;28;20057;-72
2023/07/21 10:41:58;;;;;;;2.35;0.80;;;;;;;42.56;23.94;98172.69;5004121;28;20030;-73
2023/07/21 10:44:31;;;;;;;2.10;0.93;;;;;;;40.60;25.73;98188.25;5010363;28;20038;-72
2023/07/21 10:46:57;;;;;;;1.23;0.63;;;;;;;41.33;25.60;98193.56;5003502;28;20484;-72
2023/07/21 10:49:22;;;;;;;1.40;0.80;;;;;;;42.90;25.25;98189.53;5010629;28;20107;-72
2023/07/21 10:51:49;;;;;;;1.67;0.80;;;;;;;44.09;24.26;98185.78;5008798;28;20326;-72
2023/07/21 10:54:16;;;;;;;1.98;0.90;;;;;;;44.08;24.26;98187.03;5006422;28;20364;-72
2023/07/21 10:56:43;;;;;;;3.63;1.25;;;;;;;43.48;24.85;98189.97;5010046;28;20034;-73
2023/07/21 10:59:09;;;;;;;1.48;0.90;;;;;;;41.98;25.67;98187.03;5006395;28;20046;-72
2023/07/21 11:01:41;;;;;;;2.30;0.77;;;;;;;42.75;24.73;98188.16;5006561;28;20484;-73
2023/07/21 11:04:08;;;;;;;1.20;0.80;;;;;;;43.93;23.06;98203.63;5010092;28;20026;-72
2023/07/21 11:06:39;;;;;;;0.83;0.60;;;;;;;43.32;23.75;98204.19;5011302;28;20121;-72
2023/07/21 11:09:04;;;;;;;5.15;0.85;;;;;;;43.45;23.79;98201.47;5008136;28;20018;-73
2023/07/21 11:11:29;;;;;;;1.90;0.65;;;;;;;43.60;23.15;98211.34;5007925;28;20033;-72
2023/07/21 11:13:55;;;;;;;1.63;0.70;;;;;;;43.47;24.12;98196.09;5005734;28;20041;-72
2023/07/21 11:16:20;;;;;;;2.03;1.00;;;;;;;40.12;25.29;98206.06;5007016;28;20053;-73
2023/07/21 11:18:46;;;;;;;1.27;0.80;;;;;;;38.32;26.62;98194.50;5009897;28;20491;-77
2023/07/21 11:21:11;;;;;;;0.80;0.80;;;;;;;36.56;28.26;98201.47;5013722;28;20050;-75
2023/07/21 11:23:37;;;;;;;1.25;0.82;;;;;;;36.05;30.34;98207.81;5010761;28;20088;-78
2023/07/21 11:26:07;;;;;;;3.47;0.98;;;;;;;35.70;30.91;98197.84;5011455;28;20411;-78
2023/07/21 11:28:34;;;;;;;1.90;0.85;;;;;;;36.18;30.44;98200.72;5010566;28;20118;-77